createdAt,value
2022-08-16T00:01:14.256Z,2.50
2022-08-16T00:03:41.037Z,1.83
2022-08-16T00:06:08.044Z,1.73
2022-08-16T00:08:37.662Z,1.85
2022-08-16T00:11:15.903Z,1.75
2022-08-16T00:13:53.432Z,1.90
2022-08-16T00:17:11.951Z,1.95
2022-08-16T00:19:14.172Z,1.77
2022-08-16T00:21:41.630Z,2.15
2022-08-16T00:24:11.598Z,1.80
2022-08-16T00:26:44.963Z,1.80
2022-08-16T00:29:15.379Z,2.00
2022-08-16T00:31:59.652Z,1.92
2022-08-16T00:34:45.193Z,1.90
2022-08-16T00:37:18.557Z,1.70
2022-08-16T00:39:47.871Z,1.80
2022-08-16T00:42:31.614Z,1.80
2022-08-16T00:45:35.483Z,1.83
2022-08-16T00:48:31.347Z,2.10
2022-08-16T00:50:55.379Z,1.92
2022-08-16T00:53:22.402Z,1.95
2022-08-16T00:55:52.607Z,1.98
2022-08-16T00:58:34.411Z,1.88
2022-08-16T01:01:02.191Z,1.67
2022-08-16T01:03:30.382Z,2.30
2022-08-16T01:05:59.145Z,1.48
2022-08-16T01:08:36.219Z,1.70
2022-08-16T01:11:05.298Z,2.28
2022-08-16T01:13:35.763Z,2.00
2022-08-16T01:16:19.812Z,2.00
2022-08-16T01:18:55.065Z,1.55
2022-08-16T01:21:33.943Z,1.83
2022-08-16T01:24:53.418Z,2.00
2022-08-16T01:27:48.711Z,1.80
2022-08-16T01:30:26.516Z,1.60
2022-08-16T01:33:01.933Z,1.65
2022-08-16T01:35:52.780Z,1.95
2022-08-16T01:38:49.075Z,2.08
2022-08-16T01:41:29.826Z,2.03
2022-08-16T01:43:57.214Z,2.22
2022-08-16T01:46:40.259Z,2.13
2022-08-16T01:49:15.524Z,1.63
2022-08-16T01:51:44.672Z,2.00
2022-08-16T01:54:13.462Z,1.77
2022-08-16T01:56:43.172Z,1.98
2022-08-16T01:59:16.005Z,1.80
2022-08-16T02:01:49.626Z,1.65
2022-08-16T02:04:40.043Z,1.73
2022-08-16T02:07:08.961Z,1.98
2022-08-16T02:09:40.249Z,1.55
2022-08-16T02:12:42.136Z,1.92
2022-08-16T02:14:56.028Z,1.77
2022-08-16T02:17:24.476Z,1.70
2022-08-16T02:20:00.037Z,2.42
2022-08-16T02:22:34.798Z,1.73
2022-08-16T02:27:41.330Z,2.22
2022-08-16T02:30:37.644Z,1.90
2022-08-16T02:33:03.443Z,1.73
2022-08-16T02:35:31.106Z,1.80
2022-08-16T02:38:01.803Z,1.88
2022-08-16T02:40:36.363Z,2.17
2022-08-16T02:43:04.478Z,1.40
2022-08-16T02:45:32.519Z,1.90
2022-08-16T02:48:01.512Z,1.70
2022-08-16T02:50:53.707Z,1.88
2022-08-16T02:53:30.455Z,1.70
2022-08-16T02:55:57.257Z,1.85
2022-08-16T02:58:24.824Z,2.40
2022-08-16T03:00:52.703Z,1.60
2022-08-16T03:03:19.602Z,1.73
2022-08-16T03:05:52.274Z,1.60
2022-08-16T03:08:49.645Z,1.60
2022-08-16T03:11:16.894Z,1.75
2022-08-16T03:13:55.749Z,2.17
2022-08-16T03:16:32.971Z,1.70
2022-08-16T03:19:07.375Z,1.80
2022-08-16T03:21:38.024Z,1.80
2022-08-16T03:24:29.127Z,1.73
2022-08-16T03:26:58.042Z,2.35
2022-08-16T03:29:30.074Z,1.75
2022-08-16T03:32:01.426Z,1.92
2022-08-16T03:34:30.589Z,1.77
2022-08-16T03:36:57.670Z,2.22
2022-08-16T03:39:25.087Z,1.95
2022-08-16T03:41:59.580Z,2.10
2022-08-16T03:44:40.728Z,2.28
2022-08-16T03:47:18.965Z,2.10
2022-08-16T03:49:48.143Z,2.00
2022-08-16T03:52:20.286Z,2.50
2022-08-16T03:54:58.139Z,2.30
2022-08-16T03:57:32.221Z,1.80
2022-08-16T04:00:20.235Z,2.10
2022-08-16T04:03:08.501Z,2.25
2022-08-16T04:05:44.263Z,2.08
2022-08-16T04:08:22.990Z,2.00
2022-08-16T04:10:52.015Z,1.90
2022-08-16T04:13:20.334Z,1.80
2022-08-16T04:15:48.169Z,1.90
2022-08-16T04:18:20.130Z,1.80
2022-08-16T04:20:49.041Z,1.73
2022-08-16T04:23:16.596Z,2.22
2022-08-16T04:25:43.601Z,2.03
2022-08-16T04:28:51.621Z,2.60
2022-08-16T04:31:00.742Z,2.20
2022-08-16T04:33:29.477Z,2.53
2022-08-16T04:36:01.775Z,1.98
2022-08-16T04:38:31.539Z,1.90
2022-08-16T04:40:58.320Z,1.92
2022-08-16T04:43:25.290Z,1.95
2022-08-16T04:45:59.935Z,2.10
2022-08-16T04:48:32.601Z,2.15
2022-08-16T04:51:07.978Z,2.10
2022-08-16T04:53:41.307Z,2.05
2022-08-16T04:56:11.541Z,2.03
2022-08-16T04:58:46.110Z,1.80
2022-08-16T05:01:13.787Z,2.30
2022-08-16T05:03:59.976Z,2.00
2022-08-16T05:06:45.200Z,2.30
2022-08-16T05:09:12.766Z,2.20
2022-08-16T05:11:39.508Z,1.85
2022-08-16T05:14:07.290Z,2.10
2022-08-16T05:16:34.136Z,2.28
2022-08-16T05:19:02.413Z,2.17
2022-08-16T05:21:37.987Z,2.10
2022-08-16T05:24:06.264Z,2.17
2022-08-16T05:26:33.998Z,2.10
2022-08-16T05:29:03.670Z,2.10
2022-08-16T05:31:31.861Z,2.00
2022-08-16T05:34:00.321Z,2.13
2022-08-16T05:36:34.311Z,2.00
2022-08-16T05:39:09.399Z,2.45
2022-08-16T05:41:45.422Z,2.33
2022-08-16T05:44:23.576Z,2.50
2022-08-16T05:46:56.262Z,2.10
2022-08-16T05:49:23.934Z,2.05
2022-08-16T05:51:50.971Z,2.25
2022-08-16T05:54:25.234Z,1.88
2022-08-16T05:56:53.479Z,2.10
2022-08-16T05:59:22.148Z,1.73
2022-08-16T06:01:50.795Z,2.03
2022-08-16T06:04:36.644Z,1.92
2022-08-16T06:07:08.943Z,2.10
2022-08-16T06:09:43.838Z,1.80
2022-08-16T06:12:26.391Z,1.90
2022-08-16T06:14:59.814Z,3.58
2022-08-16T06:17:41.127Z,4.93
2022-08-16T06:20:11.519Z,5.68
2022-08-16T06:22:40.002Z,5.00
2022-08-16T06:25:07.283Z,5.78
2022-08-16T06:27:39.724Z,5.53
2022-08-16T06:30:10.057Z,6.07
2022-08-16T06:32:43.126Z,6.03
2022-08-16T06:35:15.923Z,6.75
2022-08-16T06:37:47.019Z,5.85
2022-08-16T06:40:18.100Z,5.63
2022-08-16T06:42:47.544Z,5.75
2022-08-16T06:45:15.401Z,5.65
2022-08-16T06:47:52.958Z,6.45
2022-08-16T06:50:22.241Z,5.30
2022-08-16T06:53:00.060Z,5.60
2022-08-16T06:55:32.198Z,5.68
2022-08-16T06:58:01.815Z,5.35
2022-08-16T07:00:35.801Z,5.47
2022-08-16T07:03:28.337Z,6.03
2022-08-16T07:05:53.883Z,5.80
2022-08-16T07:08:21.071Z,5.53
2022-08-16T07:10:48.005Z,5.72
2022-08-16T07:13:26.557Z,5.70
2022-08-16T07:16:02.313Z,5.68
2022-08-16T07:18:29.011Z,5.55
2022-08-16T07:21:01.729Z,5.38
2022-08-16T07:23:36.931Z,6.05
2022-08-16T07:26:08.155Z,5.25
2022-08-16T07:28:35.598Z,5.22
2022-08-16T07:31:03.438Z,5.10
2022-08-16T07:33:53.151Z,4.75
2022-08-16T07:36:22.717Z,5.35
2022-08-16T07:38:50.255Z,4.93
2022-08-16T07:41:17.503Z,4.70
2022-08-16T07:43:47.552Z,5.15
2022-08-16T07:46:39.233Z,5.40
2022-08-16T07:49:04.560Z,4.68
2022-08-16T07:51:38.136Z,4.18
2022-08-16T07:54:10.096Z,4.22
2022-08-16T07:56:38.430Z,4.47
2022-08-16T07:59:06.344Z,5.68
2022-08-16T08:01:34.838Z,4.38
2022-08-16T08:04:03.430Z,4.22
2022-08-16T08:06:31.812Z,5.22
2022-08-16T08:08:59.134Z,4.65
2022-08-16T08:11:28.092Z,4.40
2022-08-16T08:13:55.285Z,4.95
2022-08-16T08:16:30.680Z,5.32
2022-08-16T08:19:00.982Z,4.50
2022-08-16T08:21:59.667Z,4.72
2022-08-16T08:24:21.436Z,5.28
2022-08-16T08:26:50.045Z,4.55
2022-08-16T08:29:23.186Z,4.97
2022-08-16T08:32:04.616Z,4.40
2022-08-16T08:34:51.300Z,4.72
2022-08-16T08:37:17.990Z,5.05
2022-08-16T08:39:54.566Z,4.70
2022-08-16T08:42:26.756Z,4.45
2022-08-16T08:44:54.787Z,4.03
2022-08-16T08:47:21.447Z,3.78
2022-08-16T08:49:55.499Z,3.85
2022-08-16T08:52:34.217Z,4.10
2022-08-16T08:55:09.287Z,4.15
2022-08-16T08:57:40.594Z,4.18
2022-08-16T09:00:13.301Z,3.50
2022-08-16T09:02:44.552Z,4.13
2022-08-16T09:05:16.734Z,3.58
2022-08-16T09:08:00.386Z,3.67
2022-08-16T09:10:30.000Z,3.80
2022-08-16T09:12:57.889Z,3.72
2022-08-16T09:15:26.499Z,3.17
2022-08-16T09:18:00.271Z,3.85
2022-08-16T09:20:30.394Z,3.70
2022-08-16T09:22:58.034Z,3.60
2022-08-16T09:25:34.287Z,3.28
2022-08-16T09:28:08.932Z,3.90
2022-08-16T09:30:44.250Z,3.20
2022-08-16T09:33:13.645Z,3.13
2022-08-16T09:35:42.789Z,3.05
2022-08-16T09:38:12.396Z,3.15
2022-08-16T09:40:58.759Z,3.00
2022-08-16T09:43:58.280Z,2.67
2022-08-16T09:48:59.353Z,3.10
2022-08-16T09:51:36.864Z,3.28
2022-08-16T09:54:04.748Z,3.28
2022-08-16T09:56:34.849Z,3.30
2022-08-16T09:59:07.327Z,3.30
2022-08-16T10:01:43.661Z,3.08
2022-08-16T10:04:32.975Z,3.45
2022-08-16T10:09:54.683Z,2.92
2022-08-16T10:12:43.253Z,3.00
2022-08-16T10:15:15.499Z,2.72
2022-08-16T10:17:42.882Z,2.42
2022-08-16T10:20:13.715Z,2.38
2022-08-16T10:22:45.726Z,2.80
2022-08-16T10:27:19.127Z,2.78
2022-08-16T10:28:26.137Z,3.22
2022-08-16T10:33:22.967Z,2.58
2022-08-16T10:35:49.654Z,2.58
2022-08-16T10:38:27.201Z,2.53
2022-08-16T10:40:54.838Z,3.13
2022-08-16T10:43:21.620Z,2.80
2022-08-16T10:46:00.413Z,4.03
2022-08-16T10:48:29.164Z,3.40
2022-08-16T10:50:58.983Z,2.70
2022-08-16T10:53:32.762Z,2.85
2022-08-16T10:56:50.446Z,3.08
2022-08-16T10:59:32.395Z,3.03
2022-08-16T11:02:21.702Z,2.60
2022-08-16T11:12:52.622Z,2.78
2022-08-16T11:15:20.501Z,2.90
2022-08-16T11:18:48.437Z,2.22
2022-08-16T11:20:42.292Z,2.45
2022-08-16T11:23:10.165Z,2.70
2022-08-16T11:31:11.573Z,2.67
2022-08-16T11:33:55.639Z,2.78
2022-08-16T11:36:27.459Z,2.65
2022-08-16T11:38:57.264Z,2.53
2022-08-16T11:41:25.202Z,3.03
2022-08-16T11:43:56.008Z,2.83
2022-08-16T11:46:43.351Z,3.22
2022-08-16T11:49:13.394Z,2.58
2022-08-16T11:51:44.197Z,2.95
2022-08-16T11:54:20.144Z,2.97
2022-08-16T11:56:53.022Z,3.17
2022-08-16T11:59:28.514Z,3.33
2022-08-16T12:01:59.669Z,2.50
2022-08-16T12:04:27.589Z,2.95
2022-08-16T12:06:54.730Z,3.00
2022-08-16T12:09:22.248Z,2.78
2022-08-16T12:11:52.555Z,3.38
2022-08-16T12:14:22.913Z,2.72
2022-08-16T12:16:55.655Z,3.45
2022-08-16T12:19:35.406Z,3.10
2022-08-16T12:22:05.386Z,3.40
2022-08-16T12:24:45.210Z,3.13
2022-08-16T12:27:18.244Z,3.20
2022-08-16T12:29:44.917Z,3.67
2022-08-16T12:32:37.733Z,2.95
2022-08-16T12:34:58.718Z,3.03
2022-08-16T12:37:26.288Z,3.40
2022-08-16T12:40:07.275Z,3.03
2022-08-16T12:42:54.404Z,3.37
2022-08-16T12:45:22.690Z,3.42
2022-08-16T12:48:32.917Z,3.42
2022-08-16T12:50:56.982Z,3.05
2022-08-16T12:53:24.799Z,3.95
2022-08-16T12:55:52.863Z,3.35
2022-08-16T12:58:47.401Z,3.60
2022-08-16T13:01:08.242Z,3.03
2022-08-16T13:03:40.567Z,3.00
2022-08-16T13:06:08.172Z,3.05
2022-08-16T13:08:35.007Z,3.33
2022-08-16T13:11:07.639Z,3.30
2022-08-16T13:13:35.541Z,3.10
2022-08-16T13:16:10.783Z,3.30
2022-08-16T13:18:42.949Z,3.70
2022-08-16T13:21:10.675Z,2.80
2022-08-16T13:23:43.255Z,3.33
2022-08-16T13:26:11.134Z,3.53
2022-08-16T13:28:37.830Z,3.45
2022-08-16T13:31:04.577Z,3.08
2022-08-16T13:33:37.907Z,3.38
2022-08-16T13:36:17.002Z,2.47
2022-08-16T13:38:52.994Z,3.40
2022-08-16T13:41:21.073Z,3.00
2022-08-16T13:43:55.159Z,3.08
2022-08-16T13:46:26.494Z,3.45
2022-08-16T13:48:53.423Z,2.90
2022-08-16T13:51:20.806Z,3.50
2022-08-16T13:53:54.279Z,3.47
2022-08-16T13:56:26.062Z,3.22
2022-08-16T13:59:04.511Z,3.22
2022-08-16T14:01:33.134Z,3.35
2022-08-16T14:04:03.662Z,3.47
2022-08-16T14:06:31.350Z,3.78
2022-08-16T14:09:06.093Z,3.25
2022-08-16T14:11:34.271Z,3.90
2022-08-16T14:14:02.017Z,3.00
2022-08-16T14:16:33.901Z,2.97
2022-08-16T14:19:02.125Z,3.00
2022-08-16T14:21:34.725Z,4.22
2022-08-16T14:24:03.183Z,3.38
2022-08-16T14:26:40.368Z,3.38
2022-08-16T14:29:10.807Z,3.58
2022-08-16T14:31:39.668Z,3.97
2022-08-16T14:34:07.780Z,3.70
2022-08-16T14:36:38.079Z,3.45
2022-08-16T14:39:08.879Z,3.47
2022-08-16T14:41:35.593Z,3.45
2022-08-16T14:44:07.183Z,3.38
2022-08-16T14:46:36.039Z,3.90
2022-08-16T14:49:02.797Z,3.78
2022-08-16T14:51:50.345Z,3.63
2022-08-16T14:54:30.395Z,3.53
2022-08-16T14:57:00.067Z,3.63
2022-08-16T14:59:27.223Z,3.88
2022-08-16T15:01:58.650Z,3.83
2022-08-16T15:04:39.319Z,4.18
2022-08-16T15:07:10.177Z,4.32
2022-08-16T15:09:44.844Z,3.70
2022-08-16T15:12:32.702Z,4.00
2022-08-16T15:15:00.166Z,3.55
2022-08-16T15:17:34.028Z,3.58
2022-08-16T15:20:09.327Z,4.38
2022-08-16T15:22:43.015Z,4.30
2022-08-16T15:25:30.027Z,4.03
2022-08-16T15:27:58.303Z,4.03
2022-08-16T15:30:58.484Z,3.65
2022-08-16T15:33:19.613Z,4.35
2022-08-16T15:35:49.059Z,4.43
2022-08-16T15:38:54.906Z,4.00
2022-08-16T15:41:03.374Z,4.40
2022-08-16T15:43:39.161Z,4.13
2022-08-16T15:46:34.912Z,4.47
2022-08-16T15:49:09.768Z,4.13
2022-08-16T15:51:39.364Z,4.55
2022-08-16T15:54:29.264Z,4.13
2022-08-16T15:59:26.955Z,3.50
2022-08-16T16:01:58.287Z,3.90
2022-08-16T16:04:28.607Z,3.17
2022-08-16T16:06:56.769Z,4.18
2022-08-16T16:09:36.598Z,4.25
2022-08-16T16:12:34.143Z,4.95
2022-08-16T16:14:52.980Z,4.35
2022-08-16T16:17:19.648Z,4.45
2022-08-16T16:19:49.777Z,4.20
2022-08-16T16:22:21.736Z,4.32
2022-08-16T16:24:52.124Z,3.88
2022-08-16T16:27:18.889Z,4.60
2022-08-16T16:29:57.815Z,4.18
2022-08-16T16:32:34.416Z,4.35
2022-08-16T16:35:06.197Z,3.95
2022-08-16T16:37:33.426Z,4.05
2022-08-16T16:40:00.401Z,4.55
2022-08-16T16:42:30.312Z,4.00
2022-08-16T16:45:01.641Z,4.10
2022-08-16T16:47:41.764Z,3.95
2022-08-16T16:50:13.080Z,3.63
2022-08-16T16:52:43.980Z,3.83
2022-08-16T16:55:13.104Z,4.45
2022-08-16T16:58:00.327Z,3.83
2022-08-16T17:00:37.599Z,3.92
2022-08-16T17:03:06.023Z,3.72
2022-08-16T17:05:56.883Z,3.58
2022-08-16T17:08:28.803Z,3.63
2022-08-16T17:10:55.859Z,4.80
2022-08-16T17:13:24.556Z,3.83
2022-08-16T17:15:52.652Z,3.97
2022-08-16T17:19:17.094Z,3.60
2022-08-16T17:21:07.832Z,3.65
2022-08-16T17:23:59.420Z,3.90
2022-08-16T17:26:23.078Z,3.42
2022-08-16T17:29:02.453Z,3.80
2022-08-16T17:31:38.501Z,3.25
2022-08-16T17:34:30.546Z,3.53
2022-08-16T17:36:59.780Z,3.42
2022-08-16T17:39:29.539Z,3.45
2022-08-16T17:42:01.054Z,3.28
2022-08-16T17:44:28.804Z,3.28
2022-08-16T17:46:55.532Z,3.40
2022-08-16T17:49:22.299Z,3.25
2022-08-16T17:51:49.255Z,3.47
2022-08-16T17:54:20.537Z,3.90
2022-08-16T17:57:01.316Z,3.53
2022-08-16T17:59:28.946Z,3.33
2022-08-16T18:01:56.420Z,3.28
2022-08-16T18:04:49.734Z,3.38
2022-08-16T18:07:10.518Z,3.60
2022-08-16T18:09:40.781Z,3.60
2022-08-16T18:12:44.546Z,3.45
2022-08-16T18:15:08.959Z,3.10
2022-08-16T18:17:36.117Z,2.67
2022-08-16T18:20:04.082Z,2.97
2022-08-16T18:22:32.328Z,3.70
2022-08-16T18:24:59.168Z,3.38
2022-08-16T18:27:27.449Z,3.60
2022-08-16T18:29:55.148Z,3.05
2022-08-16T18:32:24.764Z,3.55
2022-08-16T18:34:54.249Z,3.33
2022-08-16T18:37:22.825Z,2.95
2022-08-16T18:39:49.562Z,3.00
2022-08-16T18:42:16.441Z,3.55
2022-08-16T18:44:44.674Z,3.33
2022-08-16T18:47:11.414Z,2.42
2022-08-16T18:49:38.552Z,3.45
2022-08-16T18:52:05.601Z,3.70
2022-08-16T18:55:03.146Z,3.38
2022-08-16T18:57:21.008Z,3.90
2022-08-16T18:59:47.746Z,3.30
2022-08-16T19:02:56.177Z,3.75
2022-08-16T19:05:24.552Z,3.78
2022-08-16T19:07:51.367Z,3.70
2022-08-16T19:10:19.194Z,3.60
2022-08-16T19:12:45.898Z,3.65
2022-08-16T19:15:16.443Z,3.55
2022-08-16T19:17:44.861Z,3.70
2022-08-16T19:20:12.852Z,3.78
2022-08-16T19:23:02.097Z,3.85
2022-08-16T19:25:48.552Z,3.50
2022-08-16T19:28:50.044Z,3.10
2022-08-16T19:31:19.428Z,3.50
2022-08-16T19:33:54.092Z,3.55
2022-08-16T19:36:30.938Z,3.08
2022-08-16T19:39:04.626Z,3.33
2022-08-16T19:41:32.941Z,3.58
2022-08-16T19:43:59.616Z,4.97
2022-08-16T19:46:26.352Z,3.92
2022-08-16T19:48:53.219Z,3.50
2022-08-16T19:51:19.915Z,3.13
2022-08-16T19:53:46.649Z,3.80
2022-08-16T19:56:13.414Z,3.42
2022-08-16T19:58:56.087Z,3.88
2022-08-16T20:01:26.839Z,2.95
2022-08-16T20:03:53.516Z,3.65
2022-08-16T20:06:34.856Z,2.83
2022-08-16T20:09:05.388Z,3.33
2022-08-16T20:11:32.114Z,3.22
2022-08-16T20:13:59.524Z,3.10
2022-08-16T20:16:26.428Z,3.50
2022-08-16T20:18:53.172Z,3.75
2022-08-16T20:21:19.909Z,3.58
2022-08-16T20:23:46.779Z,3.38
2022-08-16T20:26:22.687Z,3.33
2022-08-16T20:28:54.632Z,3.63
2022-08-16T20:31:25.903Z,3.63
2022-08-16T20:33:53.495Z,2.90
2022-08-16T20:36:21.823Z,3.88
2022-08-16T20:38:50.024Z,3.58
2022-08-16T20:41:17.071Z,3.70
2022-08-16T20:43:45.563Z,3.45
2022-08-16T20:46:13.704Z,3.88
2022-08-16T20:48:40.385Z,3.15
2022-08-16T20:51:10.678Z,2.90
2022-08-16T20:53:41.217Z,3.75
2022-08-16T20:56:08.733Z,3.50
2022-08-16T20:58:35.435Z,3.70
2022-08-16T21:01:03.658Z,3.47
2022-08-16T21:03:30.782Z,3.65
2022-08-16T21:06:02.304Z,3.28
2022-08-16T21:08:52.593Z,3.50
2022-08-16T21:11:16.486Z,3.35
2022-08-16T21:13:46.409Z,3.58
2022-08-16T21:16:17.262Z,3.50
2022-08-16T21:18:44.037Z,3.50
2022-08-16T21:21:12.211Z,3.47
2022-08-16T21:23:39.076Z,3.45
2022-08-16T21:26:10.685Z,3.50
2022-08-16T21:28:41.621Z,4.32
2022-08-16T21:31:13.620Z,4.63
2022-08-16T21:33:41.014Z,4.30
2022-08-16T21:36:08.226Z,5.15
2022-08-16T21:38:35.201Z,4.35
2022-08-16T21:41:03.698Z,3.92
2022-08-16T21:43:33.049Z,3.45
2022-08-16T21:46:01.412Z,3.95
2022-08-16T21:48:35.122Z,3.70
2022-08-16T21:51:11.156Z,3.63
2022-08-16T21:53:38.166Z,3.03
2022-08-16T21:56:05.515Z,3.75
2022-08-16T21:58:32.327Z,3.45
2022-08-16T22:01:00.231Z,3.78
2022-08-16T22:03:26.968Z,4.15
2022-08-16T22:06:02.428Z,3.92
2022-08-16T22:08:47.849Z,3.90
2022-08-16T22:11:22.190Z,4.00
2022-08-16T22:13:58.031Z,4.20
2022-08-16T22:16:32.888Z,3.72
2022-08-16T22:19:00.280Z,4.32
2022-08-16T22:21:27.081Z,4.15
2022-08-16T22:23:58.700Z,3.78
2022-08-16T22:26:36.802Z,3.60
2022-08-16T22:29:09.781Z,3.42
2022-08-16T22:31:37.694Z,3.47
2022-08-16T22:34:04.892Z,4.07
2022-08-16T22:36:33.007Z,3.50
2022-08-16T22:39:02.081Z,3.92
2022-08-16T22:41:32.025Z,3.95
2022-08-16T22:43:59.358Z,3.85
2022-08-16T22:46:26.199Z,4.32
2022-08-16T22:48:53.033Z,4.13
2022-08-16T22:51:21.549Z,3.95
2022-08-16T22:53:48.603Z,4.28
2022-08-16T22:56:16.055Z,3.95
2022-08-16T22:58:42.986Z,4.22
2022-08-16T23:01:12.924Z,3.80
2022-08-16T23:03:40.586Z,4.32
2022-08-16T23:06:07.508Z,4.35
2022-08-16T23:08:38.932Z,4.40
2022-08-16T23:11:07.953Z,3.97
2022-08-16T23:13:34.713Z,4.57
2022-08-16T23:16:11.157Z,4.15
2022-08-16T23:18:40.032Z,4.20
2022-08-16T23:21:09.252Z,4.45
2022-08-16T23:23:37.189Z,4.30
2022-08-16T23:26:46.654Z,4.13
2022-08-16T23:28:51.136Z,4.35
2022-08-16T23:31:18.016Z,3.83
2022-08-16T23:33:46.071Z,4.30
2022-08-16T23:36:12.782Z,4.47
2022-08-16T23:38:48.666Z,3.92
2022-08-16T23:41:15.822Z,4.95
2022-08-16T23:43:43.719Z,4.30
2022-08-16T23:46:14.028Z,3.75
2022-08-16T23:49:56.346Z,4.50
2022-08-16T23:51:29.100Z,4.25
2022-08-16T23:53:56.162Z,4.07
2022-08-16T23:56:23.003Z,4.78
2022-08-16T23:58:52.598Z,4.15
